Terminal Aerodrome Forecast
Issued by NWS

Home | Current Version | Previous Version | Text Only | Print | Product List | Glossary On
Versions: 1 2 3 4 5 6 7 8 9 10 11 12 13 14 15 16 17 18 19 20 21 22 23 24 25 26 27 28 29 30 31 32 33 34 35 36 37 38 39 40 41 42 43 44 45 46
000
FTUS45 KBOU 301751
TAFAPA
TAF
KAPA 301751Z 3018/3118 04010KT P6SM FEW007 BKN015 OVC030
      TEMPO 3018/3022 3SM SHRA BR BKN007 OVC015
     FM302200 04012KT P6SM VCTS SCT020CB OVC035
      TEMPO 3022/3101 5SM -SHRA BKN020
     FM310100 09008KT P6SM VCSH SCT035 BKN060
     FM310400 20006KT P6SM SCT045 BKN080
     FM310900 VRB04KT P6SM VCFG SCT005
      TEMPO 3110/3114 1/2SM FG BKN005
     FM311500 32004KT P6SM SCT015 SCT080=

USA.gov is the U.S. government's official web portal to all federal, state and local government web resources and services.